Time;durP1;ratioP1;P1;durP2;ratioP2;P2;SDS_P1;SDS_P2;PMS_P1;PMS_P2;Temp;Humidity;BMP_temperature;BMP_pressure;BME280_temperature;BME280_humidity;BME280_pressure;Samples;Min_cycle;Max_cycle;Signal;HPM_P1;HPM_P2
2023/01/15 00:01:42;;;;;;;2.00;1.30;;;;;;;19.28;49.54;96445.84;5047186;28;20193;-87
2023/01/15 00:04:12;;;;;;;1.50;1.40;;;;;;;18.90;49.53;96383.00;5044105;28;20225;-88
2023/01/15 00:06:40;;;;;;;1.50;1.40;;;;;;;18.68;49.36;96338.41;5041051;28;20185;-88
2023/01/15 00:09:07;;;;;;;1.40;1.30;;;;;;;18.62;49.51;96345.06;5043794;28;20214;-87
2023/01/15 00:11:33;;;;;;;1.50;1.40;;;;;;;19.34;49.53;96446.84;5047599;28;20178;-88
2023/01/15 00:14:00;;;;;;;1.13;1.10;;;;;;;18.87;49.52;96358.34;5047295;28;20205;-88
2023/01/15 00:16:27;;;;;;;1.10;1.10;;;;;;;19.44;49.38;96451.28;5046113;28;20193;-87
2023/01/15 00:18:55;;;;;;;1.37;1.27;;;;;;;18.48;49.42;96283.72;5033158;28;20209;-87
2023/01/15 00:21:21;;;;;;;1.40;1.30;;;;;;;18.07;49.51;96211.59;5044424;28;20225;-89
2023/01/15 00:29:19;;;;;;;1.40;1.30;;;;;;;19.23;49.56;96399.84;5044647;28;20210;-88
2023/01/15 00:31:56;;;;;;;1.47;1.37;;;;;;;19.52;49.44;96447.19;5041348;28;20249;-88
2023/01/15 00:34:23;;;;;;;1.30;1.20;;;;;;;19.35;49.71;96412.88;5009442;28;20305;-87
2023/01/15 00:36:50;;;;;;;1.33;1.23;;;;;;;18.55;49.29;96280.47;5045879;28;20195;-88
2023/01/15 00:39:17;;;;;;;1.30;1.20;;;;;;;19.44;49.35;96424.91;5043470;28;20187;-88
2023/01/15 00:41:43;;;;;;;1.40;1.30;;;;;;;18.52;49.01;96266.81;5029782;28;20245;-88
2023/01/15 00:44:10;;;;;;;1.50;1.40;;;;;;;19.23;49.58;96388.81;5040678;28;20202;-88
2023/01/15 00:46:36;;;;;;;1.30;1.30;;;;;;;19.63;49.85;96455.06;5046625;28;20202;-86
2023/01/15 00:49:03;;;;;;;1.20;1.20;;;;;;;18.53;49.60;96299.09;5038694;28;20210;-88
2023/01/15 00:51:30;;;;;;;1.40;1.30;;;;;;;19.70;49.62;96460.31;5042444;28;20202;-86
2023/01/15 00:53:57;;;;;;;1.20;1.20;;;;;;;18.35;49.54;96233.38;5029189;28;20258;-88
2023/01/15 00:56:23;;;;;;;1.50;1.40;;;;;;;19.44;49.43;96418.16;5043878;28;20208;-87
2023/01/15 00:58:50;;;;;;;1.17;1.17;;;;;;;19.33;49.69;96396.69;5045710;28;20196;-87
2023/01/15 01:01:16;;;;;;;1.37;1.27;;;;;;;18.45;49.50;96226.81;5040911;28;20182;-88
2023/01/15 01:03:47;;;;;;;1.30;1.20;;;;;;;19.13;49.58;96357.19;5041610;28;20204;-87
2023/01/15 01:06:15;;;;;;;1.40;1.30;;;;;;;19.09;49.37;96335.03;5039218;28;20214;-88
2023/01/15 01:08:44;;;;;;;1.30;1.20;;;;;;;19.23;49.56;96355.69;5044422;28;20209;-87
2023/01/15 01:11:13;;;;;;;1.30;1.30;;;;;;;18.83;49.59;96290.38;5034861;28;20197;-87
2023/01/15 01:13:39;;;;;;;1.40;1.30;;;;;;;18.96;49.47;96306.75;5043970;28;20236;-88
2023/01/15 01:16:32;;;;;;;1.23;1.20;;;;;;;19.71;49.42;96422.91;5045163;28;20245;-88
2023/01/15 01:18:59;;;;;;;1.50;1.40;;;;;;;19.42;49.45;96375.66;5041229;28;20179;-87
2023/01/15 01:21:26;;;;;;;1.10;1.10;;;;;;;18.38;49.62;96197.03;5027190;28;20202;-87
2023/01/15 01:23:52;;;;;;;1.47;1.37;;;;;;;19.22;49.48;96331.06;5023127;28;20226;-89
2023/01/15 01:26:19;;;;;;;1.40;1.30;;;;;;;19.24;49.50;96344.66;5043044;28;20241;-87
2023/01/15 01:28:49;;;;;;;1.43;1.33;;;;;;;19.20;49.48;96333.56;5046380;28;20221;-88
2023/01/15 01:31:16;;;;;;;1.30;1.20;;;;;;;18.90;49.51;96291.38;5040590;28;20205;-88
2023/01/15 01:33:43;;;;;;;1.30;1.20;;;;;;;19.51;49.71;96386.84;5040621;28;20265;-88
2023/01/15 01:36:09;;;;;;;1.30;1.20;;;;;;;19.70;49.63;96414.44;5043355;28;20237;-88
2023/01/15 01:38:36;;;;;;;1.20;1.10;;;;;;;19.44;50.40;96362.09;5022814;28;20205;-86
2023/01/15 01:41:02;;;;;;;1.00;1.00;;;;;;;18.42;49.44;96189.47;5044857;28;20259;-87
2023/01/15 01:43:29;;;;;;;1.30;1.20;;;;;;;19.25;49.45;96331.13;5043123;28;20190;-88
2023/01/15 01:45:56;;;;;;;1.23;1.20;;;;;;;19.15;49.49;96319.88;5042330;28;20179;-88
2023/01/15 01:48:28;;;;;;;1.57;1.47;;;;;;;18.47;49.66;96210.75;5042619;28;20186;-88
2023/01/15 01:50:55;;;;;;;1.30;1.20;;;;;;;18.44;49.45;96187.81;5023890;28;20175;-87
2023/01/15 01:53:24;;;;;;;1.53;1.30;;;;;;;18.92;49.61;96262.56;5005410;28;20237;-88
2023/01/15 01:55:50;;;;;;;1.17;1.10;;;;;;;19.23;49.32;96315.81;5023118;28;20241;-88
2023/01/15 01:58:17;;;;;;;1.10;1.10;;;;;;;17.62;49.39;96049.66;5047147;28;20201;-88
2023/01/15 02:00:45;;;;;;;1.20;1.10;;;;;;;18.83;49.56;96236.09;5037685;28;20217;-87
2023/01/15 02:03:12;;;;;;;1.33;1.27;;;;;;;19.14;49.46;96294.41;5019424;28;20233;-88
2023/01/15 02:05:44;;;;;;;1.10;1.10;;;;;;;18.29;49.47;96153.56;5036294;28;20210;-87
2023/01/15 02:08:11;;;;;;;1.40;1.30;;;;;;;19.17;49.52;96292.78;5026574;28;20178;-89
2023/01/15 02:10:38;;;;;;;1.00;1.00;;;;;;;19.15;49.60;96288.47;5039753;28;20194;-87
2023/01/15 02:13:18;;;;;;;1.40;1.30;;;;;;;19.35;49.54;96318.63;5023373;28;20183;-88
2023/01/15 02:15:46;;;;;;;1.40;1.30;;;;;;;18.05;49.52;96085.25;5029744;28;20249;-87
2023/01/15 02:18:27;;;;;;;1.10;1.10;;;;;;;18.52;49.54;96165.94;5019049;28;20261;-88
2023/01/15 02:20:58;;;;;;;1.17;1.10;;;;;;;19.71;49.55;96371.94;5037670;28;20191;-87
2023/01/15 02:24:05;;;;;;;1.00;1.00;;;;;;;19.06;49.41;96286.59;5040324;28;20882;-88
2023/01/15 02:27:07;;;;;;;1.20;1.20;;;;;;;19.72;49.48;96368.56;5036526;28;20197;-88
2023/01/15 02:29:37;;;;;;;1.27;1.17;;;;;;;19.71;49.82;96359.19;5027547;28;20223;-88
2023/01/15 02:32:09;;;;;;;1.10;1.10;;;;;;;18.84;49.36;96207.25;5022194;28;20250;-88
2023/01/15 02:34:37;;;;;;;1.03;1.03;;;;;;;19.71;49.62;96352.41;5020479;28;20225;-86
2023/01/15 02:37:06;;;;;;;1.30;1.20;;;;;;;19.27;49.47;96269.22;5028109;28;20199;-87
2023/01/15 02:39:33;;;;;;;1.10;1.10;;;;;;;19.24;49.33;96264.03;5036723;28;20186;-88
2023/01/15 02:42:01;;;;;;;1.03;1.03;;;;;;;18.79;49.49;96193.56;5049481;28;20194;-88
2023/01/15 02:44:28;;;;;;;1.23;1.20;;;;;;;18.57;49.60;96156.72;5027252;28;20209;-88
2023/01/15 02:46:55;;;;;;;1.10;1.10;;;;;;;19.16;49.65;96250.28;5022680;28;20216;-88
2023/01/15 02:49:22;;;;;;;1.00;1.00;;;;;;;19.28;49.24;96270.94;5044688;28;20229;-88
2023/01/15 02:52:00;;;;;;;1.20;1.20;;;;;;;19.40;49.46;96283.03;5043215;28;20194;-87
2023/01/15 02:54:29;;;;;;;1.00;1.00;;;;;;;18.90;49.47;96192.97;5010960;28;20232;-88
2023/01/15 02:56:56;;;;;;;1.47;1.37;;;;;;;18.32;49.44;96090.06;5040727;28;20205;-88
2023/01/15 02:59:25;;;;;;;0.97;0.97;;;;;;;18.96;49.38;96205.81;5040343;28;20190;-88
2023/01/15 03:01:57;;;;;;;1.20;1.10;;;;;;;19.12;49.38;96247.66;5037959;28;20194;-88
2023/01/15 03:04:30;;;;;;;1.10;1.10;;;;;;;19.32;49.51;96267.63;5048644;28;20273;-88
2023/01/15 03:07:17;;;;;;;0.90;0.90;;;;;;;19.52;49.53;96299.41;5042429;28;20181;-86
2023/01/15 03:09:44;;;;;;;1.20;1.20;;;;;;;18.78;49.37;96161.31;5044443;28;20277;-90
2023/01/15 03:12:17;;;;;;;1.17;1.10;;;;;;;18.96;49.33;96190.53;5053720;28;20178;-91
2023/01/15 03:14:45;;;;;;;1.30;1.20;;;;;;;19.70;49.36;96309.06;5023796;28;20210;-90
2023/01/15 03:17:38;;;;;;;1.40;1.30;;;;;;;19.26;49.53;96233.50;5046413;28;20233;-91
2023/01/15 03:20:15;;;;;;;1.20;1.10;;;;;;;19.70;49.63;96297.19;5046645;28;20181;-87
2023/01/15 03:22:43;;;;;;;1.10;1.10;;;;;;;19.62;49.46;96274.94;5046454;28;20204;-89
2023/01/15 03:25:41;;;;;;;1.17;1.13;;;;;;;19.49;49.47;96255.19;5014357;28;20262;-91
2023/01/15 03:28:08;;;;;;;1.40;1.30;;;;;;;19.65;49.53;96290.28;5038027;28;20217;-92
2023/01/15 03:30:34;;;;;;;1.20;1.10;;;;;;;18.17;49.52;96022.81;5049866;28;20222;-92
2023/01/15 03:33:01;;;;;;;1.00;1.00;;;;;;;18.62;49.43;96101.66;5028185;28;20182;-90
2023/01/15 03:35:47;;;;;;;1.27;1.20;;;;;;;18.39;49.52;96056.31;5016851;28;20202;-91
2023/01/15 03:38:16;;;;;;;1.30;1.20;;;;;;;18.79;49.57;96127.41;5041443;28;20194;-92
2023/01/15 03:41:12;;;;;;;1.33;1.23;;;;;;;19.70;49.59;96274.25;5014622;28;20198;-91
2023/01/15 03:44:06;;;;;;;1.40;1.30;;;;;;;19.70;49.47;96266.59;5033120;28;20223;-90
2023/01/15 03:46:36;;;;;;;1.03;1.03;;;;;;;19.71;49.57;96267.44;5042545;28;20221;-91
2023/01/15 03:49:12;;;;;;;1.30;1.20;;;;;;;19.70;49.52;96266.59;5041139;28;20240;-88
2023/01/15 03:51:54;;;;;;;1.00;1.00;;;;;;;18.96;49.58;96146.38;5041233;28;20198;-91
2023/01/15 03:54:26;;;;;;;1.10;1.10;;;;;;;18.99;49.51;96157.50;5041926;28;20213;-89
2023/01/15 03:57:08;;;;;;;1.30;1.20;;;;;;;18.96;49.70;96156.56;5030994;28;20190;-91
2023/01/15 03:59:37;;;;;;;1.00;1.00;;;;;;;19.68;49.57;96275.91;5041951;28;20206;-91
2023/01/15 04:02:05;;;;;;;1.00;1.00;;;;;;;18.53;49.07;96063.34;5044107;28;20222;-91
2023/01/15 04:04:32;;;;;;;1.30;1.20;;;;;;;18.34;49.32;96046.00;5023721;28;20281;-90
2023/01/15 04:06:59;;;;;;;1.20;1.10;;;;;;;18.95;49.54;96125.16;5027980;28;20197;-87
2023/01/15 04:09:26;;;;;;;0.90;0.90;;;;;;;18.72;49.37;96087.44;5046119;28;20245;-91
2023/01/15 04:11:52;;;;;;;1.10;1.10;;;;;;;19.08;49.47;96144.91;5044295;28;20257;-92
2023/01/15 04:14:19;;;;;;;1.07;1.07;;;;;;;19.54;49.26;96228.09;5045380;28;20203;-90
2023/01/15 04:16:45;;;;;;;1.20;1.10;;;;;;;18.91;49.30;96107.25;5026309;28;20209;-89
2023/01/15 04:19:12;;;;;;;2.47;1.20;;;;;;;19.17;49.58;96150.16;5044595;28;20349;-91
2023/01/15 04:21:39;;;;;;;1.30;1.20;;;;;;;18.29;49.57;95996.75;5023805;28;20237;-92
2023/01/15 04:24:06;;;;;;;0.90;0.90;;;;;;;18.82;49.33;96087.59;5042828;28;20201;-91
2023/01/15 04:26:32;;;;;;;1.10;1.10;;;;;;;18.61;49.37;96043.13;5045066;28;20492;-90
2023/01/15 04:28:59;;;;;;;1.10;1.10;;;;;;;18.79;49.50;96074.84;5042458;28;20189;-88
2023/01/15 04:31:26;;;;;;;1.17;1.10;;;;;;;18.69;49.68;96070.44;5027427;28;20254;-91
2023/01/15 04:33:53;;;;;;;1.30;1.20;;;;;;;18.11;49.40;95973.53;5024172;28;20232;-92
2023/01/15 04:36:19;;;;;;;1.10;1.10;;;;;;;19.09;49.44;96136.44;5010851;28;20220;-91
2023/01/15 04:38:46;;;;;;;1.00;1.00;;;;;;;19.19;49.49;96138.28;5046866;28;20213;-88
2023/01/15 04:44:07;;;;;;;1.10;1.10;;;;;;;18.28;49.68;95979.78;5045894;28;20198;-91
2023/01/15 04:46:43;;;;;;;1.40;1.30;;;;;;;18.56;49.61;96050.66;5041251;28;20205;-91
2023/01/15 04:49:12;;;;;;;1.10;1.10;;;;;;;18.94;49.58;96087.81;5043524;28;20186;-91
2023/01/15 04:51:38;;;;;;;1.30;1.17;;;;;;;19.33;49.54;96151.31;5044716;28;20201;-91
2023/01/15 04:54:06;;;;;;;1.30;1.20;;;;;;;17.56;49.43;95841.28;5045522;28;20194;-92
2023/01/15 04:56:36;;;;;;;0.93;0.93;;;;;;;18.74;49.57;96048.44;5028243;28;20222;-90
2023/01/15 04:59:03;;;;;;;1.00;1.00;;;;;;;19.24;49.48;96149.44;5042592;28;20273;-90
2023/01/15 05:01:29;;;;;;;1.10;1.10;;;;;;;19.13;49.69;96105.09;5050602;28;20217;-91
2023/01/15 05:03:57;;;;;;;1.30;1.20;;;;;;;19.29;49.58;96134.25;5041236;28;20217;-91
2023/01/15 05:06:24;;;;;;;1.10;1.10;;;;;;;18.46;49.47;95989.44;5043409;28;20237;-91
2023/01/15 05:08:51;;;;;;;1.00;1.00;;;;;;;19.21;49.64;96118.81;5039787;28;20187;-90
2023/01/15 05:11:18;;;;;;;1.10;1.10;;;;;;;19.34;49.73;96145.38;5046611;28;20220;-91
2023/01/15 05:13:44;;;;;;;0.90;0.90;;;;;;;18.64;49.53;96007.56;5042632;28;20202;-91
2023/01/15 05:16:13;;;;;;;1.00;1.00;;;;;;;18.79;49.55;96035.78;5043931;28;20178;-91
2023/01/15 05:18:41;;;;;;;1.00;1.00;;;;;;;19.30;49.56;96111.34;5026533;28;20194;-91
2023/01/15 05:21:21;;;;;;;1.00;1.00;;;;;;;18.32;49.51;95968.81;5029403;28;20217;-90
2023/01/15 05:23:48;;;;;;;1.10;1.10;;;;;;;19.52;49.48;96138.03;5051878;28;20265;-88
2023/01/15 05:26:15;;;;;;;1.00;1.00;;;;;;;19.70;49.50;96172.28;5044294;28;20202;-90
2023/01/15 05:28:42;;;;;;;2.67;1.17;;;;;;;18.10;49.61;95893.03;5042192;28;20178;-89
2023/01/15 05:31:10;;;;;;;1.10;1.10;;;;;;;19.38;49.50;96114.88;5034520;28;20202;-90
2023/01/15 05:33:37;;;;;;;1.00;1.00;;;;;;;19.01;49.55;96053.97;5007057;28;20233;-91
2023/01/15 05:36:06;;;;;;;1.07;1.07;;;;;;;18.46;49.59;95990.31;5043248;28;20193;-91
2023/01/15 05:38:32;;;;;;;1.00;1.00;;;;;;;19.71;49.55;96161.25;5045154;28;20213;-90
2023/01/15 05:41:02;;;;;;;1.00;1.00;;;;;;;19.71;49.55;96161.25;5043347;28;20178;-87
2023/01/15 05:43:30;;;;;;;1.00;1.00;;;;;;;18.77;49.35;96006.94;5027484;28;20221;-91
2023/01/15 05:46:00;;;;;;;1.00;1.00;;;;;;;19.18;49.34;96079.69;5042020;28;20189;-90
2023/01/15 05:48:27;;;;;;;1.10;1.10;;;;;;;19.41;49.31;96103.88;5027033;28;20218;-91
2023/01/15 05:50:54;;;;;;;1.00;1.00;;;;;;;18.36;49.58;95927.38;5040360;28;20209;-87
2023/01/15 05:53:20;;;;;;;1.00;1.00;;;;;;;17.91;49.48;95855.41;5050883;28;20257;-90
2023/01/15 05:55:47;;;;;;;1.20;1.10;;;;;;;19.50;49.39;96121.84;5030619;28;20218;-90
2023/01/15 05:58:14;;;;;;;1.20;1.10;;;;;;;18.83;49.23;96007.03;5049852;28;20219;-92
2023/01/15 06:00:40;;;;;;;0.93;0.93;;;;;;;18.06;49.40;95876.88;5044912;28;20178;-90
2023/01/15 06:03:07;;;;;;;1.10;1.10;;;;;;;18.41;49.28;95940.22;5040837;28;20224;-91
2023/01/15 06:05:33;;;;;;;1.10;1.10;;;;;;;18.31;49.50;95925.56;5042961;28;20253;-91
2023/01/15 06:08:00;;;;;;;1.07;1.07;;;;;;;19.16;49.71;96055.94;5040808;28;20205;-91
2023/01/15 06:10:27;;;;;;;1.20;1.10;;;;;;;19.33;49.63;96095.28;5042573;28;20217;-91
2023/01/15 06:12:53;;;;;;;0.87;0.87;;;;;;;18.39;49.81;95929.13;5046221;28;20204;-88
2023/01/15 06:15:20;;;;;;;1.20;1.10;;;;;;;19.44;49.71;96106.47;5041053;28;20249;-92
2023/01/15 06:17:48;;;;;;;1.00;1.00;;;;;;;18.01;49.65;95858.16;5045709;28;20198;-91
2023/01/15 06:20:15;;;;;;;1.20;1.10;;;;;;;19.12;49.58;96049.91;5044591;28;20205;-91
2023/01/15 06:22:42;;;;;;;0.97;0.97;;;;;;;18.50;49.94;95940.34;5010485;28;20186;-88
2023/01/15 06:25:08;;;;;;;1.20;1.10;;;;;;;18.40;49.96;95923.22;5043058;28;20217;-90
2023/01/15 06:27:35;;;;;;;1.20;1.10;;;;;;;19.45;49.48;96098.84;5050616;28;20225;-91
2023/01/15 06:30:01;;;;;;;1.07;1.07;;;;;;;19.20;49.58;96045.81;5024356;28;20206;-89
2023/01/15 06:32:28;;;;;;;1.40;1.30;;;;;;;19.23;49.73;96047.53;5043549;28;20193;-91
2023/01/15 06:34:55;;;;;;;1.13;0.93;;;;;;;18.19;49.54;95870.31;5039503;28;20233;-91
2023/01/15 06:37:21;;;;;;;1.10;1.10;;;;;;;19.45;49.57;96092.91;5042216;28;20209;-91
2023/01/15 06:39:48;;;;;;;1.00;1.00;;;;;;;18.93;49.64;95997.03;5047383;28;20190;-90
2023/01/15 06:47:46;;;;;;;1.00;1.00;;;;;;;18.27;49.32;95869.59;5042463;28;20245;-91
2023/01/15 06:50:13;;;;;;;0.90;0.90;;;;;;;19.15;49.61;96016.00;5037528;28;20238;-91
2023/01/15 06:52:39;;;;;;;1.20;1.20;;;;;;;19.00;49.92;95995.41;5050658;28;20189;-91
2023/01/15 06:55:06;;;;;;;1.00;1.00;;;;;;;19.12;49.72;96013.41;5037313;28;20236;-90
2023/01/15 06:57:33;;;;;;;0.93;0.93;;;;;;;18.54;49.55;95915.00;5040126;28;20206;-89
2023/01/15 06:59:59;;;;;;;1.23;1.20;;;;;;;19.51;49.48;96086.19;5015816;28;20445;-89
2023/01/15 07:02:26;;;;;;;1.03;1.03;;;;;;;19.44;49.49;96070.81;4993568;28;20233;-88
2023/01/15 07:04:53;;;;;;;1.20;1.10;;;;;;;19.63;49.62;96109.31;4997443;28;20221;-89
2023/01/15 07:07:19;;;;;;;1.20;1.10;;;;;;;19.45;49.67;96072.53;4992055;28;20629;-89
2023/01/15 07:09:46;;;;;;;1.00;1.00;;;;;;;19.17;49.56;96015.19;5011496;28;20273;-89
2023/01/15 07:12:12;;;;;;;1.40;1.30;;;;;;;19.25;49.61;96033.13;5005617;28;20230;-89
2023/01/15 07:14:39;;;;;;;1.00;1.00;;;;;;;19.52;49.58;96075.19;4993327;28;20245;-89
2023/01/15 07:17:06;;;;;;;0.90;0.90;;;;;;;19.17;49.59;96015.19;5012469;28;20207;-89
2023/01/15 07:19:32;;;;;;;1.00;1.00;;;;;;;19.28;49.48;96030.69;5011053;28;20206;-90
2023/01/15 07:21:59;;;;;;;1.10;1.10;;;;;;;19.29;49.53;96035.78;5009501;28;20195;-90
2023/01/15 07:24:26;;;;;;;0.90;0.90;;;;;;;19.14;49.53;95992.25;4994774;28;20245;-88
2023/01/15 07:26:52;;;;;;;1.10;1.10;;;;;;;19.65;49.45;96083.84;5002317;28;20198;-90
2023/01/15 07:29:19;;;;;;;1.00;1.00;;;;;;;19.16;49.69;96007.53;5016299;28;20454;-90
2023/01/15 07:31:45;;;;;;;0.90;0.90;;;;;;;19.56;49.79;96078.63;5042566;28;20224;-89
2023/01/15 07:34:12;;;;;;;0.90;0.90;;;;;;;19.58;49.52;96071.88;4996882;28;20229;-88
2023/01/15 07:36:39;;;;;;;1.27;1.20;;;;;;;19.17;49.39;96005.03;4998611;28;20608;-89
2023/01/15 07:39:06;;;;;;;1.17;1.13;;;;;;;19.14;49.58;95999.03;4998043;28;20209;-89
2023/01/15 07:49:48;;;;;;;1.10;1.10;;;;;;;19.31;49.57;96033.25;5016377;28;20289;-89
2023/01/15 07:52:16;;;;;;;1.10;1.10;;;;;;;19.26;49.75;96028.06;5024383;28;20260;-89
2023/01/15 07:54:43;;;;;;;1.00;1.00;;;;;;;18.89;49.62;95968.94;4997802;28;20292;-88
2023/01/15 07:57:10;;;;;;;1.20;1.10;;;;;;;19.71;49.89;96111.97;5019488;28;20761;-90
2023/01/15 07:59:37;;;;;;;1.00;1.00;;;;;;;19.14;49.59;96015.16;5010580;28;20290;-89
2023/01/15 08:02:04;;;;;;;1.00;1.00;;;;;;;19.23;49.64;96034.78;5010642;28;20207;-89
2023/01/15 08:04:30;;;;;;;1.10;1.10;;;;;;;19.47;49.43;96070.84;5000155;28;20235;-89
2023/01/15 08:07:00;;;;;;;1.10;1.10;;;;;;;19.52;49.90;96074.31;5012819;28;20241;-89
2023/01/15 08:09:27;;;;;;;0.90;0.90;;;;;;;19.15;49.68;96016.00;4997919;28;20209;-89
2023/01/15 08:17:24;;;;;;;0.97;0.97;;;;;;;19.46;49.61;96051.31;5010061;28;20208;-89
2023/01/15 08:19:50;;;;;;;1.10;1.10;;;;;;;19.38;49.57;96041.00;5012837;28;20202;-89
2023/01/15 08:22:17;;;;;;;1.00;1.00;;;;;;;19.05;49.80;95983.59;5010410;28;20225;-88
2023/01/15 08:24:44;;;;;;;0.97;0.97;;;;;;;19.64;49.87;96100.84;5030599;28;20222;-88
2023/01/15 08:27:11;;;;;;;1.10;1.10;;;;;;;18.94;49.59;95972.41;4991943;28;20252;-89
2023/01/15 08:29:37;;;;;;;0.90;0.90;;;;;;;19.44;49.67;96052.97;5030185;28;20209;-89
2023/01/15 08:32:04;;;;;;;0.93;0.93;;;;;;;19.32;49.61;96034.97;5000233;28;20228;-89
2023/01/15 08:34:30;;;;;;;1.00;1.00;;;;;;;19.26;49.69;96034.84;5004253;28;20236;-90
2023/01/15 08:36:58;;;;;;;1.00;1.00;;;;;;;19.29;50.04;96045.09;5002253;28;20211;-87
2023/01/15 08:39:26;;;;;;;1.10;1.10;;;;;;;19.01;49.79;95987.78;4995331;28;20225;-89
2023/01/15 08:41:53;;;;;;;1.00;1.00;;;;;;;19.25;49.69;96044.19;4997213;28;20198;-89
2023/01/15 08:44:20;;;;;;;1.00;1.00;;;;;;;19.45;49.76;96075.91;4999825;28;20285;-89
2023/01/15 08:46:47;;;;;;;0.97;0.97;;;;;;;19.13;49.77;96026.16;5012847;28;20198;-89
2023/01/15 08:49:14;;;;;;;0.90;0.90;;;;;;;19.55;49.71;96103.25;5034651;28;20210;-89
2023/01/15 08:51:40;;;;;;;1.10;1.10;;;;;;;19.17;49.65;96037.25;5032361;28;20273;-89
2023/01/15 08:54:07;;;;;;;1.00;1.00;;;;;;;19.34;49.76;96087.66;5016850;28;20729;-89
2023/01/15 08:56:34;;;;;;;1.00;1.00;;;;;;;18.89;49.82;96024.94;5033016;28;20236;-87
2023/01/15 08:59:07;;;;;;;1.00;1.00;;;;;;;19.57;49.81;96169.53;5017107;28;20258;-88
2023/01/15 09:01:34;;;;;;;0.90;0.90;;;;;;;19.40;49.83;96154.00;4994412;28;20233;-89
2023/01/15 09:04:00;;;;;;;1.10;1.10;;;;;;;19.41;49.48;96167.56;4998365;28;20221;-89
2023/01/15 09:06:27;;;;;;;0.90;0.90;;;;;;;19.02;49.83;96099.00;5015726;28;20687;-88
2023/01/15 09:08:54;;;;;;;1.07;1.07;;;;;;;19.44;49.70;96168.47;5027705;28;20210;-89
2023/01/15 09:11:20;;;;;;;0.97;0.97;;;;;;;19.08;49.77;96108.41;5014473;28;20222;-90
2023/01/15 09:13:49;;;;;;;0.90;0.90;;;;;;;19.15;49.42;96125.50;5005872;28;20653;-89
2023/01/15 09:16:16;;;;;;;1.00;1.00;;;;;;;19.37;49.47;96153.06;5007311;28;20266;-90
2023/01/15 09:18:43;;;;;;;1.00;1.00;;;;;;;19.26;49.78;96155.41;4995462;28;20268;-88
2023/01/15 09:21:09;;;;;;;0.90;0.90;;;;;;;19.21;49.73;96154.47;5006727;28;20229;-86
2023/01/15 09:23:36;;;;;;;1.00;1.00;;;;;;;19.33;49.67;96184.44;5016734;28;20696;-89
2023/01/15 09:26:05;;;;;;;0.93;0.93;;;;;;;19.43;49.72;96215.19;5012427;28;20222;-89
2023/01/15 09:28:32;;;;;;;1.00;1.00;;;;;;;19.32;49.84;96187.78;5009490;28;20203;-89
2023/01/15 09:30:58;;;;;;;0.90;0.90;;;;;;;19.43;49.71;96233.00;5004739;28;20244;-89
2023/01/15 09:33:25;;;;;;;1.00;1.00;;;;;;;19.31;49.75;96212.41;4999708;28;20217;-89
2023/01/15 09:35:52;;;;;;;0.90;0.90;;;;;;;19.07;49.81;96183.09;5026387;28;20206;-89
2023/01/15 09:38:19;;;;;;;1.00;1.00;;;;;;;19.10;49.73;96188.22;5005396;28;20202;-89
2023/01/15 09:40:55;;;;;;;1.00;1.00;;;;;;;19.33;49.67;96240.47;5009012;28;20214;-89
2023/01/15 09:43:40;;;;;;;0.90;0.90;;;;;;;19.71;49.78;96309.09;5004827;28;20256;-89
2023/01/15 09:46:44;;;;;;;1.10;1.10;;;;;;;19.22;49.87;96240.22;5025130;28;20201;-88
2023/01/15 09:49:38;;;;;;;1.07;1.07;;;;;;;19.73;49.71;96339.69;5009323;28;20620;-89
2023/01/15 09:52:49;;;;;;;1.00;1.00;;;;;;;19.66;49.76;96346.38;5030824;28;20576;-88
2023/01/15 09:55:20;;;;;;;1.00;1.00;;;;;;;19.72;49.90;96381.31;4999681;28;20218;-89
2023/01/15 09:57:49;;;;;;;1.00;1.00;;;;;;;19.03;49.67;96261.09;4983236;28;20289;-89
2023/01/15 10:00:20;;;;;;;1.00;1.00;;;;;;;19.38;49.85;96330.53;5007294;28;20233;-89
2023/01/15 10:02:51;;;;;;;1.00;1.00;;;;;;;19.06;49.76;96281.50;5002857;28;20201;-89
2023/01/15 10:05:19;;;;;;;1.00;1.00;;;;;;;19.33;49.87;96345.75;4996276;28;20241;-88
2023/01/15 10:08:14;;;;;;;0.97;0.97;;;;;;;19.69;49.80;96394.00;5028478;28;20202;-89
2023/01/15 10:11:05;;;;;;;1.00;1.00;;;;;;;19.40;49.74;96360.34;5008777;28;20659;-89
2023/01/15 10:13:45;;;;;;;0.90;0.90;;;;;;;19.72;49.83;96409.34;5023069;28;20213;-88
2023/01/15 10:16:16;;;;;;;0.90;0.90;;;;;;;19.72;49.87;96417.00;5004111;28;20612;-90
2023/01/15 10:18:43;;;;;;;1.00;1.00;;;;;;;19.18;49.51;96326.72;4988985;28;20252;-87
2023/01/15 10:21:41;;;;;;;1.00;1.00;;;;;;;19.73;49.80;96413.63;4996118;28;20560;-89
2023/01/15 10:24:33;;;;;;;0.87;0.87;;;;;;;19.72;49.63;96417.00;5028551;28;20222;-89
2023/01/15 10:26:59;;;;;;;1.03;1.03;;;;;;;19.35;49.48;96359.38;5023991;28;20260;-89
2023/01/15 10:30:05;;;;;;;1.03;1.03;;;;;;;19.46;49.78;96411.41;5010330;28;20692;-87
2023/01/15 10:32:40;;;;;;;0.90;0.90;;;;;;;19.46;49.78;96410.53;5003477;28;20285;-89
2023/01/15 10:35:37;;;;;;;1.00;1.00;;;;;;;19.30;49.99;96381.34;5023671;28;20222;-89
2023/01/15 10:38:42;;;;;;;1.00;1.00;;;;;;;19.04;49.81;96340.88;5029416;28;20284;-89
2023/01/15 10:41:27;;;;;;;0.97;0.97;;;;;;;19.43;49.85;96431.72;5021828;28;20194;-89
2023/01/15 10:44:17;;;;;;;1.10;1.00;;;;;;;19.70;49.76;96467.94;5016349;28;20229;-88
2023/01/15 10:46:48;;;;;;;0.80;0.80;;;;;;;19.32;50.03;96407.72;5010113;28;20206;-87
2023/01/15 10:49:15;;;;;;;0.90;0.90;;;;;;;19.26;49.91;96397.38;4990919;28;20202;-89
2023/01/15 11:39:00;;;;;;;4.47;1.80;;;;;;;19.25;49.16;96418.59;5750995;22;20483;-90
2023/01/15 11:52:48;;;;;;;9.00;1.97;;;;;;;19.24;49.09;96437.22;5043672;28;20249;-90
2023/01/15 11:55:17;;;;;;;6.20;1.80;;;;;;;19.57;49.38;96508.44;5035691;28;20208;-90
2023/01/15 11:57:44;;;;;;;4.17;1.73;;;;;;;19.32;48.64;96457.78;5029410;28;20805;-90
2023/01/15 12:00:28;;;;;;;1.50;1.40;;;;;;;19.52;49.08;96523.66;5014241;28;20275;-90
2023/01/15 12:03:01;;;;;;;2.23;1.57;;;;;;;19.37;49.08;96499.53;4999310;28;20288;-90
2023/01/15 12:05:33;;;;;;;5.67;1.83;;;;;;;19.50;49.35;96526.97;5016777;28;20209;-89
2023/01/15 12:08:18;;;;;;;3.93;1.70;;;;;;;19.15;49.36;96480.31;5003967;28;20215;-89
2023/01/15 12:11:05;;;;;;;3.87;1.53;;;;;;;19.66;49.50;96547.72;5012968;28;20212;-89
2023/01/15 12:13:59;;;;;;;2.50;1.67;;;;;;;19.38;49.64;96496.13;5031800;28;20200;-89
2023/01/15 12:16:39;;;;;;;6.30;2.00;;;;;;;19.57;49.65;96531.38;5015575;28;20259;-90
2023/01/15 12:19:09;;;;;;;3.03;1.60;;;;;;;18.72;49.84;96370.75;5061703;28;20201;-90
2023/01/15 12:21:58;;;;;;;6.70;1.80;;;;;;;19.67;49.59;96523.97;5053996;28;20207;-91
2023/01/15 12:24:46;;;;;;;3.80;1.90;;;;;;;19.67;49.41;96562.19;5060310;28;20209;-92
2023/01/15 12:27:28;;;;;;;6.73;2.17;;;;;;;19.16;49.18;96504.13;5076442;28;20223;-91
2023/01/15 12:29:58;;;;;;;5.17;2.20;;;;;;;18.62;48.93;96401.88;5057500;28;20247;-93
2023/01/15 12:32:36;;;;;;;5.03;2.30;;;;;;;19.15;49.76;96510.00;5060150;28;20295;-91
2023/01/15 12:35:14;;;;;;;5.07;2.10;;;;;;;19.14;49.27;96490.47;5073090;28;20219;-92
2023/01/15 12:37:47;;;;;;;7.43;2.50;;;;;;;19.67;49.34;96589.38;5060494;28;20243;-91
2023/01/15 12:40:13;;;;;;;8.60;2.20;;;;;;;19.66;49.40;96602.94;5044310;28;20240;-91
2023/01/15 12:45:29;;;;;;;4.67;1.93;;;;;;;18.22;49.47;96358.53;5062957;28;20224;-92
2023/01/15 12:47:55;;;;;;;6.17;2.00;;;;;;;19.66;49.52;96600.41;5044514;28;20228;-90
2023/01/15 12:50:43;;;;;;;12.50;2.00;;;;;;;18.68;49.79;96444.44;5059371;28;20221;-91
2023/01/15 12:59:01;;;;;;;4.70;2.47;;;;;;;19.67;49.73;96612.31;4900047;26;20205;-91
2023/01/15 13:01:47;;;;;;;5.93;2.03;;;;;;;19.65;49.52;96619.91;5044185;28;20248;-91
2023/01/15 13:04:26;;;;;;;5.03;2.23;;;;;;;19.68;49.54;96624.22;5058497;28;20503;-91
2023/01/15 13:06:56;;;;;;;6.43;2.30;;;;;;;19.59;49.71;96632.53;5076024;28;20195;-91
2023/01/15 13:09:34;;;;;;;2.60;2.00;;;;;;;19.21;49.53;96564.50;5041265;28;20213;-92
2023/01/15 13:12:01;;;;;;;4.37;2.00;;;;;;;18.34;46.82;96429.16;5039416;28;20252;-91
2023/01/15 13:14:29;;;;;;;2.13;1.50;;;;;;;19.31;44.51;96593.63;5056852;28;20194;-91
2023/01/15 13:17:02;;;;;;;2.47;1.47;;;;;;;18.14;43.55;96414.28;5069904;28;20201;-92
2023/01/15 13:20:00;;;;;;;2.33;1.70;;;;;;;19.63;43.20;96666.59;5059839;28;20220;-91
2023/01/15 13:22:28;;;;;;;2.20;1.30;;;;;;;18.80;43.93;96521.09;5070929;28;20189;-95
2023/01/15 13:25:21;;;;;;;2.60;1.30;;;;;;;19.58;44.69;96674.13;5025977;28;20207;-92
2023/01/15 13:28:17;;;;;;;3.10;1.70;;;;;;;18.17;45.38;96451.63;5032074;28;20200;-93